Terminal Aerodrome Forecast
Issued by NWS Cleveland, OH

Home | Current Version | Previous Version | Text Only | Print | Product List | Glossary Off
Versions: 1 2 3 4 5 6 7 8 9 10 11 12 13 14 15 16

000
FTUS41 KCLE 180933 AAA
TAFERI
TAF AMD
KERI 180933Z 1810/1906 27010KT 5SM BR OVC007
     FM181030 27008KT P6SM BKN015 BKN025
     FM181600 24008KT P6SM SCT025
     FM182100 18004KT P6SM BKN250=

USA.gov is the U.S. government's official web portal to all federal, state and local government web resources and services.